createdAt,value
2018-09-15T00:00:47.707Z,101116.45
2018-09-15T00:03:15.799Z,101112.94
2018-09-15T00:05:43.896Z,101123.90
2018-09-15T00:08:11.967Z,101127.16
2018-09-15T00:10:40.062Z,101133.72
2018-09-15T00:13:08.130Z,101128.53
2018-09-15T00:15:36.198Z,101129.38
2018-09-15T00:18:06.489Z,101134.73
2018-09-15T00:20:34.564Z,101134.85
2018-09-15T00:23:02.667Z,101134.85
2018-09-15T00:25:30.768Z,101138.38
2018-09-15T00:27:58.869Z,101131.73
2018-09-15T00:30:26.921Z,101134.93
2018-09-15T00:32:54.989Z,101135.02
2018-09-15T00:35:23.131Z,101134.42
2018-09-15T00:37:51.367Z,101131.29
2018-09-15T00:40:19.537Z,101136.39
2018-09-15T00:42:47.832Z,101135.12
2018-09-15T00:45:15.919Z,101136.86
2018-09-15T00:47:44.013Z,101136.95
2018-09-15T00:50:12.062Z,101136.56
2018-09-15T00:52:40.150Z,101130.33
2018-09-15T00:55:08.211Z,101132.64
2018-09-15T00:57:36.297Z,101137.88
2018-09-15T01:00:05.642Z,101138.15
2018-09-15T01:02:33.736Z,101141.16
2018-09-15T01:05:01.815Z,101136.45
2018-09-15T01:07:29.883Z,101138.00
2018-09-15T01:09:57.956Z,101141.33
2018-09-15T01:12:26.081Z,101141.83
2018-09-15T01:14:54.126Z,101143.44
2018-09-15T01:17:22.197Z,101134.78
2018-09-15T01:19:50.315Z,101137.80
2018-09-15T01:22:18.394Z,101145.23
2018-09-15T01:24:46.661Z,101138.12
2018-09-15T01:27:14.955Z,101145.12
2018-09-15T01:29:43.049Z,101153.38
2018-09-15T01:32:11.162Z,101147.30
2018-09-15T01:34:39.292Z,101147.15
2018-09-15T01:37:07.370Z,101149.23
2018-09-15T01:39:35.476Z,101146.88
2018-09-15T01:42:03.607Z,101155.94
2018-09-15T01:44:31.676Z,101156.28
2018-09-15T01:46:59.737Z,101160.95
2018-09-15T01:49:27.817Z,101159.61
2018-09-15T01:51:55.887Z,101158.56
2018-09-15T01:54:23.965Z,101156.72
2018-09-15T01:56:52.058Z,101158.36
2018-09-15T01:59:20.151Z,101159.83
2018-09-15T02:01:48.213Z,101167.59
2018-09-15T02:04:16.266Z,101159.33
2018-09-15T02:06:44.322Z,101162.96
2018-09-15T02:09:14.005Z,101166.05
2018-09-15T02:11:42.154Z,101165.55
2018-09-15T02:14:10.314Z,101168.47
2018-09-15T02:16:38.374Z,101166.63
2018-09-15T02:19:06.467Z,101167.39
2018-09-15T02:21:34.551Z,101172.56
2018-09-15T02:24:02.659Z,101170.42
2018-09-15T02:26:30.703Z,101176.89
2018-09-15T02:28:58.809Z,101180.02
2018-09-15T02:31:26.860Z,101188.12
2018-09-15T02:33:54.968Z,101184.86
2018-09-15T02:36:23.112Z,101191.56
2018-09-15T02:38:51.269Z,101193.91
2018-09-15T02:41:19.335Z,101201.42
2018-09-15T02:43:47.560Z,101189.69
2018-09-15T02:46:16.028Z,101205.03
2018-09-15T02:48:44.371Z,101198.63
2018-09-15T02:51:12.492Z,101203.51
2018-09-15T02:53:40.908Z,101199.23
2018-09-15T02:56:08.991Z,101198.53
2018-09-15T02:58:37.031Z,101205.28
2018-09-15T03:01:05.095Z,101208.70
2018-09-15T03:03:33.185Z,101210.32
2018-09-15T03:06:01.261Z,101219.41
2018-09-15T03:08:29.324Z,101221.28
2018-09-15T03:10:57.395Z,101222.36
2018-09-15T03:13:25.489Z,101217.72
2018-09-15T03:15:53.525Z,101221.83
2018-09-15T03:18:21.590Z,101220.28
2018-09-15T03:20:49.671Z,101224.52
2018-09-15T03:23:17.719Z,101221.66
2018-09-15T03:25:45.787Z,101223.91
2018-09-15T03:28:13.867Z,101229.37
2018-09-15T03:30:41.979Z,101218.79
2018-09-15T03:33:10.257Z,101220.47
2018-09-15T03:35:38.357Z,101222.23
2018-09-15T03:38:06.508Z,101227.09
2018-09-15T03:40:34.610Z,101227.28
2018-09-15T03:43:02.663Z,101232.28
2018-09-15T03:45:30.735Z,101234.83
2018-09-15T03:47:58.802Z,101235.38
2018-09-15T03:50:26.881Z,101229.97
2018-09-15T03:52:55.028Z,101229.75
2018-09-15T03:55:23.079Z,101227.13
2018-09-15T03:57:51.192Z,101224.48
2018-09-15T04:00:19.252Z,101228.89
2018-09-15T04:02:47.349Z,101224.19
2018-09-15T04:05:15.416Z,101225.58
2018-09-15T04:07:43.491Z,101224.00
2018-09-15T04:10:11.591Z,101224.16
2018-09-15T04:12:39.727Z,101230.59
2018-09-15T04:15:07.799Z,101230.39
2018-09-15T04:17:35.874Z,101230.86
2018-09-15T04:20:03.960Z,101244.92
2018-09-15T04:22:32.028Z,101253.80
2018-09-15T04:25:00.089Z,101247.45
2018-09-15T04:27:28.198Z,101247.91
2018-09-15T04:29:56.287Z,101253.39
2018-09-15T04:32:24.552Z,101265.75
2018-09-15T04:34:52.784Z,101269.38
2018-09-15T04:37:20.883Z,101279.68
2018-09-15T04:39:48.949Z,101274.94
2018-09-15T04:42:17.104Z,101280.77
2018-09-15T04:44:45.195Z,101282.56
2018-09-15T04:47:13.267Z,101284.92
2018-09-15T04:49:41.319Z,101284.23
2018-09-15T04:52:09.390Z,101282.74
2018-09-15T04:54:37.462Z,101291.19
2018-09-15T04:57:05.614Z,101292.84
2018-09-15T04:59:33.713Z,101290.50
2018-09-15T05:02:01.823Z,101299.25
2018-09-15T05:04:29.878Z,101300.59
2018-09-15T05:06:57.953Z,101297.02
2018-09-15T05:09:26.019Z,101295.16
2018-09-15T05:11:54.087Z,101294.20
2018-09-15T05:14:22.166Z,101299.89
2018-09-15T05:16:50.242Z,101300.84
2018-09-15T05:19:18.320Z,101303.15
2018-09-15T05:21:46.412Z,101305.98
2018-09-15T05:24:14.567Z,101307.69
2018-09-15T05:26:42.661Z,101308.68
2018-09-15T05:29:10.788Z,101313.36
2018-09-15T05:31:38.962Z,101321.02
2018-09-15T05:34:07.024Z,101326.00
2018-09-15T05:36:35.258Z,101331.66
2018-09-15T05:39:03.499Z,101328.20
2018-09-15T05:41:31.607Z,101332.85
2018-09-15T05:43:59.703Z,101331.47
2018-09-15T05:46:27.764Z,101330.56
2018-09-15T05:48:55.889Z,101338.92
2018-09-15T05:51:23.956Z,101341.69
2018-09-15T05:53:52.031Z,101344.50
2018-09-15T05:56:20.091Z,101349.27
2018-09-15T05:58:48.271Z,101347.01
2018-09-15T06:01:16.338Z,101355.14
2018-09-15T06:03:44.411Z,101356.88
2018-09-15T06:06:12.479Z,101349.80
2018-09-15T06:08:40.563Z,101347.08
2018-09-15T06:11:08.640Z,101366.92
2018-09-15T06:13:36.821Z,101360.45
2018-09-15T06:16:04.851Z,101358.08
2018-09-15T06:18:33.098Z,101363.41
2018-09-15T06:21:01.388Z,101367.20
2018-09-15T06:23:29.589Z,101364.44
2018-09-15T06:25:57.816Z,101359.67
2018-09-15T06:28:26.582Z,101368.98
2018-09-15T06:30:55.130Z,101358.13
2018-09-15T06:33:23.390Z,101361.02
2018-09-15T06:35:51.708Z,101353.02
2018-09-15T06:38:19.916Z,101366.03
2018-09-15T06:40:48.413Z,101361.36
2018-09-15T06:43:16.866Z,101368.45
2018-09-15T06:45:45.218Z,101363.13
2018-09-15T06:48:13.584Z,101368.63
2018-09-15T06:50:41.788Z,101369.86
2018-09-15T06:53:10.025Z,101368.04
2018-09-15T06:55:38.645Z,101378.61
2018-09-15T06:58:08.664Z,101373.11
2018-09-15T07:00:37.744Z,101380.04
2018-09-15T07:03:06.015Z,101378.50
2018-09-15T07:05:34.302Z,101377.80
2018-09-15T07:08:02.542Z,101389.53
2018-09-15T07:10:30.810Z,101393.48
2018-09-15T07:12:59.324Z,101394.97
2018-09-15T07:15:27.381Z,101391.47
2018-09-15T07:17:55.765Z,101389.75
2018-09-15T07:20:24.178Z,101394.26
2018-09-15T07:22:52.748Z,101400.55
2018-09-15T07:25:20.933Z,101391.16
2018-09-15T07:27:49.467Z,101400.04
2018-09-15T07:30:18.070Z,101401.70
2018-09-15T07:32:47.395Z,101413.66
2018-09-15T07:35:15.617Z,101415.97
2018-09-15T07:37:45.158Z,101416.33
2018-09-15T07:40:13.806Z,101413.14
2018-09-15T07:42:42.051Z,101414.30
2018-09-15T07:45:10.231Z,101416.48
2018-09-15T07:47:38.535Z,101416.73
2018-09-15T07:50:06.799Z,101426.37
2018-09-15T08:06:50.408Z,101431.86
2018-09-15T08:09:18.490Z,101426.25
2018-09-15T08:11:46.572Z,101424.49
2018-09-15T08:14:14.700Z,101426.55
2018-09-15T08:16:42.775Z,101422.68
2018-09-15T08:19:10.836Z,101430.56
2018-09-15T08:21:38.946Z,101425.66
2018-09-15T08:24:07.092Z,101425.24
2018-09-15T08:26:35.246Z,101427.50
2018-09-15T08:29:03.275Z,101431.64
2018-09-15T08:31:31.338Z,101436.30
2018-09-15T08:33:59.414Z,101438.71
2018-09-15T08:36:27.527Z,101436.41
2018-09-15T08:38:55.604Z,101435.75
2018-09-15T08:41:23.749Z,101444.95
2018-09-15T08:43:51.813Z,101449.01
2018-09-15T08:46:19.904Z,101446.57
2018-09-15T08:48:48.020Z,101452.15
2018-09-15T08:51:16.092Z,101443.98
2018-09-15T08:53:44.255Z,101444.38
2018-09-15T08:56:12.431Z,101439.06
2018-09-15T08:58:40.461Z,101436.66
2018-09-15T09:01:08.572Z,101442.03
2018-09-15T09:03:36.684Z,101441.84
2018-09-15T09:06:04.768Z,101445.36
2018-09-15T09:08:32.886Z,101443.11
2018-09-15T09:11:00.971Z,101439.30
2018-09-15T09:13:29.058Z,101447.37
2018-09-15T09:15:57.139Z,101444.98
2018-09-15T09:18:25.223Z,101447.19
2018-09-15T09:20:53.414Z,101445.61
2018-09-15T09:23:21.499Z,101448.62
2018-09-15T09:25:49.622Z,101442.53
2018-09-15T09:28:17.850Z,101447.86
2018-09-15T09:30:46.026Z,101445.41
2018-09-15T09:33:14.190Z,101439.72
2018-09-15T09:35:42.193Z,101436.09
2018-09-15T09:38:10.317Z,101441.16
2018-09-15T09:40:38.355Z,101424.77
2018-09-15T09:43:06.439Z,101435.48
2018-09-15T09:45:34.543Z,101430.88
2018-09-15T09:48:02.704Z,101434.89
2018-09-15T09:50:30.731Z,101434.19
2018-09-15T09:52:58.783Z,101436.38
2018-09-15T09:55:26.862Z,101436.82
2018-09-15T09:57:54.950Z,101445.33
2018-09-15T10:00:28.475Z,101439.66
2018-09-15T10:02:56.540Z,101438.73
2018-09-15T10:05:24.696Z,101442.69
2018-09-15T10:07:52.759Z,101443.97
2018-09-15T10:10:20.860Z,101436.27
2018-09-15T10:12:48.957Z,101437.34
2018-09-15T10:15:17.059Z,101438.69
2018-09-15T10:17:45.134Z,101436.09
2018-09-15T10:20:13.451Z,101429.83
2018-09-15T10:22:41.576Z,101428.70
2018-09-15T10:25:09.641Z,101436.94
2018-09-15T10:27:37.696Z,101437.78
2018-09-15T10:30:05.770Z,101432.43
2018-09-15T10:32:33.855Z,101427.92
2018-09-15T10:35:01.956Z,101428.52
2018-09-15T10:37:30.027Z,101434.55
2018-09-15T10:39:58.111Z,101437.33
2018-09-15T10:42:26.191Z,101442.72
2018-09-15T10:44:54.297Z,101445.16
2018-09-15T10:47:22.443Z,101443.33
2018-09-15T10:49:50.543Z,101440.29
2018-09-15T10:52:18.718Z,101434.28
2018-09-15T10:54:46.789Z,101441.88
2018-09-15T10:57:14.863Z,101439.62
2018-09-15T10:59:43.056Z,101432.34
2018-09-15T11:02:12.964Z,101437.20
2018-09-15T11:04:41.731Z,101434.95
2018-09-15T11:07:09.818Z,101431.38
2018-09-15T11:09:37.911Z,101425.38
2018-09-15T11:12:06.129Z,101421.72
2018-09-15T11:14:34.268Z,101422.03
2018-09-15T11:17:02.374Z,101404.81
2018-09-15T11:19:30.721Z,101418.27
2018-09-15T11:21:58.839Z,101428.69
2018-09-15T11:24:27.019Z,101423.67
2018-09-15T11:26:55.371Z,101419.84
2018-09-15T11:29:23.451Z,101426.63
2018-09-15T11:31:51.535Z,101421.58
2018-09-15T11:34:19.627Z,101421.09
2018-09-15T11:36:47.699Z,101413.95
2018-09-15T11:39:15.781Z,101408.27
2018-09-15T11:41:43.863Z,101404.69
2018-09-15T11:44:12.028Z,101405.76
2018-09-15T11:46:40.120Z,101400.39
2018-09-15T11:49:08.184Z,101403.39
2018-09-15T11:51:36.268Z,101408.48
2018-09-15T11:54:04.327Z,101396.02
2018-09-15T11:56:32.403Z,101402.70
2018-09-15T11:59:00.502Z,101405.27
2018-09-15T12:01:28.637Z,101407.18
2018-09-15T12:03:56.725Z,101411.12
2018-09-15T12:06:24.800Z,101423.16
2018-09-15T12:08:52.892Z,101421.52
2018-09-15T12:11:20.986Z,101421.29
2018-09-15T12:13:49.067Z,101420.27
2018-09-15T12:16:17.243Z,101417.74
2018-09-15T12:18:45.380Z,101416.37
2018-09-15T12:21:13.513Z,101415.74
2018-09-15T12:23:41.575Z,101422.62
2018-09-15T12:26:09.655Z,101415.44
2018-09-15T12:28:37.734Z,101420.05
2018-09-15T12:31:06.123Z,101416.52
2018-09-15T12:33:34.248Z,101420.52
2018-09-15T12:37:34.075Z,101421.29
2018-09-15T12:40:02.147Z,101419.59
2018-09-15T12:42:30.297Z,101422.94
2018-09-15T12:44:58.484Z,101427.95
2018-09-15T12:47:26.528Z,101411.50
2018-09-15T12:49:54.944Z,101417.16
2018-09-15T12:52:23.206Z,101417.52
2018-09-15T12:54:51.891Z,101421.09
2018-09-15T12:57:20.152Z,101415.33
2018-09-15T12:59:48.289Z,101398.80
2018-09-15T13:02:16.446Z,101407.28
2018-09-15T13:04:44.533Z,101405.83
2018-09-15T13:07:12.656Z,101406.42
2018-09-15T13:09:40.762Z,101402.23
2018-09-15T13:12:08.998Z,101401.46
2018-09-15T13:14:37.012Z,101406.83
2018-09-15T13:17:05.215Z,101405.38
2018-09-15T13:19:33.295Z,101410.02
2018-09-15T13:22:01.415Z,101407.48
2018-09-15T13:24:29.540Z,101410.88
2018-09-15T13:26:57.621Z,101399.08
2018-09-15T13:29:25.803Z,101395.09
2018-09-15T13:31:53.791Z,101395.45
2018-09-15T13:34:21.896Z,101397.34
2018-09-15T13:36:49.994Z,101389.02
2018-09-15T13:39:18.065Z,101392.41
2018-09-15T13:41:46.179Z,101387.38
2018-09-15T13:44:14.275Z,101377.70
2018-09-15T13:46:42.383Z,101376.17
2018-09-15T13:49:10.468Z,101378.26
2018-09-15T13:51:38.527Z,101371.66
2018-09-15T13:54:06.695Z,101375.47
2018-09-15T13:56:34.811Z,101365.67
2018-09-15T13:59:02.941Z,101369.43
2018-09-15T14:01:31.012Z,101373.19
2018-09-15T14:03:59.099Z,101365.02
2018-09-15T14:06:27.222Z,101368.10
2018-09-15T14:08:55.317Z,101368.28
2018-09-15T14:11:23.434Z,101365.46
2018-09-15T14:13:51.491Z,101370.08
2018-09-15T14:16:19.590Z,101368.92
2018-09-15T14:18:47.738Z,101362.10
2018-09-15T14:21:15.828Z,101378.68
2018-09-15T14:23:43.905Z,101379.89
2018-09-15T14:26:12.240Z,101381.58
2018-09-15T14:28:40.648Z,101385.98
2018-09-15T14:31:08.759Z,101379.95
2018-09-15T14:33:36.815Z,101386.11
2018-09-15T14:36:04.917Z,101383.52
2018-09-15T14:38:33.052Z,101376.39
2018-09-15T14:41:01.095Z,101380.61
2018-09-15T14:43:29.171Z,101380.30
2018-09-15T14:45:57.424Z,101382.41
2018-09-15T14:48:25.569Z,101377.34
2018-09-15T14:50:53.631Z,101383.84
2018-09-15T14:53:21.703Z,101377.28
2018-09-15T14:55:49.810Z,101375.25
2018-09-15T14:58:17.949Z,101381.98
2018-09-15T15:00:46.094Z,101375.20
2018-09-15T15:03:14.661Z,101363.13
2018-09-15T15:05:42.792Z,101373.47
2018-09-15T15:08:10.867Z,101377.56
2018-09-15T15:10:39.007Z,101375.78
2018-09-15T15:13:07.061Z,101367.53
2018-09-15T15:15:35.136Z,101367.40
2018-09-15T15:18:03.229Z,101371.33
2018-09-15T15:20:31.300Z,101374.37
2018-09-15T15:22:59.371Z,101372.95
2018-09-15T15:25:27.461Z,101377.31
2018-09-15T15:27:55.519Z,101373.48
2018-09-15T15:30:23.587Z,101375.18
2018-09-15T15:32:51.656Z,101379.48
2018-09-15T15:35:19.774Z,101380.39
2018-09-15T15:37:47.881Z,101374.98
2018-09-15T15:40:15.939Z,101377.56
2018-09-15T15:42:44.058Z,101376.83
2018-09-15T15:45:12.168Z,101370.95
2018-09-15T15:47:40.255Z,101372.37
2018-09-15T15:50:08.346Z,101368.55
2018-09-15T15:52:36.459Z,101366.17
2018-09-15T15:55:04.623Z,101366.45
2018-09-15T15:57:32.768Z,101353.56
2018-09-15T16:00:00.860Z,101367.41
2018-09-15T16:02:28.935Z,101377.16
2018-09-15T16:04:57.049Z,101381.14
2018-09-15T16:07:25.675Z,101374.94
2018-09-15T16:09:54.568Z,101368.70
2018-09-15T16:12:23.513Z,101382.34
2018-09-15T16:14:52.105Z,101385.98
2018-09-15T16:17:32.918Z,101389.73
2018-09-15T16:20:01.344Z,101391.21
2018-09-15T16:22:29.626Z,101390.22
2018-09-15T16:24:57.925Z,101392.95
2018-09-15T16:27:26.197Z,101390.95
2018-09-15T16:29:54.598Z,101388.21
2018-09-15T16:32:23.012Z,101378.60
2018-09-15T16:34:51.371Z,101383.91
2018-09-15T16:37:19.632Z,101384.36
2018-09-15T16:39:47.905Z,101391.41
2018-09-15T16:42:16.445Z,101381.83
2018-09-15T16:44:44.509Z,101378.80
2018-09-15T16:47:12.691Z,101372.67
2018-09-15T16:49:40.763Z,101381.55
2018-09-15T16:52:08.887Z,101387.83
2018-09-15T16:54:36.994Z,101379.48
2018-09-15T16:57:05.187Z,101392.72
2018-09-15T16:59:33.211Z,101392.06
2018-09-15T17:02:01.288Z,101388.87
2018-09-15T17:04:29.415Z,101391.59
2018-09-15T17:08:00.319Z,101388.08
2018-09-15T17:10:28.443Z,101395.91
2018-09-15T17:12:56.536Z,101395.53
2018-09-15T17:15:24.615Z,101398.09
2018-09-15T17:17:52.707Z,101400.38
2018-09-15T17:20:20.793Z,101400.69
2018-09-15T17:22:49.239Z,101391.91
2018-09-15T17:25:17.319Z,101396.14
2018-09-15T17:27:45.460Z,101394.69
2018-09-15T17:30:13.576Z,101399.37
2018-09-15T17:32:41.759Z,101408.90
2018-09-15T17:35:09.837Z,101408.26
2018-09-15T17:37:38.063Z,101404.05
2018-09-15T17:40:06.307Z,101408.33
2018-09-15T17:42:34.432Z,101408.90
2018-09-15T17:45:02.586Z,101414.89
2018-09-15T17:47:30.603Z,101412.80
2018-09-15T17:49:58.688Z,101405.62
2018-09-15T17:52:26.763Z,101406.47
2018-09-15T17:54:54.932Z,101414.56
2018-09-15T17:57:22.920Z,101417.86
2018-09-15T17:59:51.003Z,101429.72
2018-09-15T18:02:19.134Z,101431.31
2018-09-15T18:04:47.296Z,101433.37
2018-09-15T18:07:15.371Z,101434.52
2018-09-15T18:09:43.856Z,101443.53
2018-09-15T18:12:11.872Z,101443.64
2018-09-15T18:14:40.156Z,101439.67
2018-09-15T18:17:08.339Z,101443.80
2018-09-15T18:19:36.448Z,101437.45
2018-09-15T18:22:04.650Z,101446.30
2018-09-15T18:24:32.659Z,101437.24
2018-09-15T18:27:00.753Z,101452.98
2018-09-15T18:29:28.895Z,101449.94
2018-09-15T18:31:56.995Z,101452.72
2018-09-15T18:34:25.083Z,101451.19
2018-09-15T18:36:53.429Z,101456.08
2018-09-15T18:39:21.265Z,101464.91
2018-09-15T18:41:49.344Z,101464.34
2018-09-15T18:44:17.469Z,101469.33
2018-09-15T18:46:45.566Z,101472.58
2018-09-15T18:49:13.671Z,101476.16
2018-09-15T18:51:41.811Z,101475.20
2018-09-15T18:54:09.944Z,101477.13
2018-09-15T18:56:38.060Z,101480.50
2018-09-15T18:59:06.179Z,101478.77
2018-09-15T19:01:34.327Z,101479.89
2018-09-15T19:04:02.417Z,101484.39
2018-09-15T19:06:30.790Z,101493.78
2018-09-15T19:08:59.097Z,101497.41
2018-09-15T19:11:27.450Z,101495.12
2018-09-15T19:13:55.720Z,101498.45
2018-09-15T19:16:23.941Z,101495.84
2018-09-15T19:18:52.282Z,101498.45
2018-09-15T19:21:21.361Z,101497.60
2018-09-15T19:23:49.644Z,101496.97
2018-09-15T19:26:18.015Z,101496.06
2018-09-15T19:28:53.476Z,101492.59
2018-09-15T19:31:21.751Z,101491.63
2018-09-15T19:33:50.369Z,101487.95
2018-09-15T19:36:18.672Z,101496.45
2018-09-15T19:38:47.447Z,101496.70
2018-09-15T19:41:16.732Z,101500.82
2018-09-15T19:43:44.938Z,101505.54
2018-09-15T19:46:13.147Z,101506.30
2018-09-15T19:48:41.451Z,101508.78
2018-09-15T19:51:09.630Z,101512.78
2018-09-15T19:53:37.878Z,101510.60
2018-09-15T19:56:06.209Z,101507.44
2018-09-15T19:58:35.066Z,101508.32
2018-09-15T20:01:03.358Z,101503.50
2018-09-15T20:03:31.545Z,101514.26
2018-09-15T20:05:59.754Z,101511.48
2018-09-15T20:08:28.566Z,101514.11
2018-09-15T20:10:56.852Z,101506.73
2018-09-15T20:13:25.504Z,101512.64
2018-09-15T20:15:52.643Z,101520.58
2018-09-15T20:18:20.210Z,101514.76
2018-09-15T20:20:47.408Z,101516.17
2018-09-15T20:23:15.689Z,101514.91
2018-09-15T20:25:44.120Z,101517.94
2018-09-15T20:28:12.404Z,101524.70
2018-09-15T20:30:40.704Z,101522.15
2018-09-15T20:33:09.237Z,101526.19
2018-09-15T20:35:37.513Z,101528.87
2018-09-15T20:38:09.809Z,101530.80
2018-09-15T20:40:38.119Z,101522.68
2018-09-15T20:43:07.260Z,101528.36
2018-09-15T20:48:32.754Z,101529.43
2018-09-15T20:51:02.331Z,101535.31
2018-09-15T20:53:31.008Z,101536.09
2018-09-15T20:55:59.196Z,101530.52
2018-09-15T20:58:27.581Z,101529.45
2018-09-15T21:00:55.777Z,101533.10
2018-09-15T21:03:24.135Z,101535.45
2018-09-15T21:05:52.658Z,101535.79
2018-09-15T21:08:20.852Z,101544.61
2018-09-15T21:10:49.032Z,101551.39
2018-09-15T21:13:17.280Z,101542.17
2018-09-15T21:15:45.906Z,101543.32
2018-09-15T21:18:15.100Z,101544.02
2018-09-15T21:20:44.376Z,101546.16
2018-09-15T21:23:12.629Z,101549.40
2018-09-15T21:25:40.915Z,101546.13
2018-09-15T21:28:09.122Z,101551.05
2018-09-15T21:30:37.341Z,101546.77
2018-09-15T21:33:05.699Z,101552.00
2018-09-15T21:35:33.940Z,101553.45
2018-09-15T21:38:02.143Z,101556.02
2018-09-15T21:40:30.375Z,101560.06
2018-09-15T21:42:58.593Z,101554.50
2018-09-15T21:45:26.890Z,101551.00
2018-09-15T21:47:55.040Z,101547.76
2018-09-15T21:50:23.321Z,101550.15
2018-09-15T21:52:51.619Z,101552.06
2018-09-15T21:55:19.900Z,101561.27
2018-09-15T21:57:49.666Z,101563.95
2018-09-15T22:00:17.911Z,101562.64
2018-09-15T22:02:47.026Z,101562.88
2018-09-15T22:05:15.328Z,101563.19
2018-09-15T22:07:43.731Z,101561.30
2018-09-15T22:10:12.195Z,101561.30
2018-09-15T22:12:40.457Z,101564.76
2018-09-15T22:15:14.075Z,101560.88
2018-09-15T22:17:43.527Z,101561.00
2018-09-15T22:20:12.644Z,101566.32
2018-09-15T22:22:42.677Z,101566.20
2018-09-15T22:25:12.425Z,101571.38
2018-09-15T22:27:40.682Z,101562.61
2018-09-15T22:30:09.741Z,101564.58
2018-09-15T22:32:37.949Z,101562.55
2018-09-15T22:35:06.234Z,101563.30
2018-09-15T22:37:34.698Z,101561.30
2018-09-15T22:40:03.227Z,101561.12
2018-09-15T22:42:32.470Z,101558.02
2018-09-15T22:45:01.325Z,101557.83
2018-09-15T22:47:30.509Z,101559.78
2018-09-15T22:49:58.655Z,101562.67
2018-09-15T22:52:26.935Z,101566.72
2018-09-15T22:54:55.136Z,101564.52
2018-09-15T22:57:23.389Z,101559.14
2018-09-15T22:59:51.606Z,101556.23
2018-09-15T23:02:19.791Z,101551.36
2018-09-15T23:04:48.282Z,101553.27
2018-09-15T23:07:16.511Z,101556.64
2018-09-15T23:09:45.071Z,101551.41
2018-09-15T23:12:13.573Z,101556.98
2018-09-15T23:14:42.164Z,101556.60
2018-09-15T23:17:10.413Z,101554.97
2018-09-15T23:19:38.708Z,101561.98
2018-09-15T23:22:07.587Z,101557.78
2018-09-15T23:24:35.842Z,101555.31
2018-09-15T23:27:04.421Z,101553.78
2018-09-15T23:29:33.540Z,101552.35
2018-09-15T23:32:01.777Z,101553.72
2018-09-15T23:34:29.886Z,101549.03
2018-09-15T23:36:58.012Z,101544.21
2018-09-15T23:39:26.115Z,101548.72
2018-09-15T23:41:54.196Z,101548.64
2018-09-15T23:44:22.329Z,101548.34
2018-09-15T23:46:50.464Z,101546.44
2018-09-15T23:49:18.600Z,101541.90
2018-09-15T23:51:46.734Z,101539.88
2018-09-15T23:54:14.821Z,101546.77
2018-09-15T23:56:42.903Z,101538.21
2018-09-15T23:59:10.967Z,101541.08
